sensor_id;sensor_type;location;lat;lon;timestamp;temperature;humidity
67893;DHT22;54688;52.376;16.744;2023-02-15T00:04:32;-2.2;80.3
67893;DHT22;54688;52.376;16.744;2023-02-15T00:07:34;-2.3;79.5
67893;DHT22;54688;52.376;16.744;2023-02-15T00:10:37;-2.3;79.5
67893;DHT22;54688;52.376;16.744;2023-02-15T00:13:39;-2.3;79.5
67893;DHT22;54688;52.376;16.744;2023-02-15T00:16:41;-2.3;79.4
67893;DHT22;54688;52.376;16.744;2023-02-15T00:19:44;-2.3;79.1
67893;DHT22;54688;52.376;16.744;2023-02-15T00:22:46;-2.4;79.1
67893;DHT22;54688;52.376;16.744;2023-02-15T00:25:48;-2.4;79.2
67893;DHT22;54688;52.376;16.744;2023-02-15T00:28:50;-2.4;79.3
67893;DHT22;54688;52.376;16.744;2023-02-15T00:31:53;-2.4;79.5
67893;DHT22;54688;52.376;16.744;2023-02-15T00:34:56;-2.5;79.5
67893;DHT22;54688;52.376;16.744;2023-02-15T00:37:58;-2.5;79.6
67893;DHT22;54688;52.376;16.744;2023-02-15T00:41:01;-2.5;79.6
67893;DHT22;54688;52.376;16.744;2023-02-15T00:44:06;-2.6;80.2
67893;DHT22;54688;52.376;16.744;2023-02-15T00:47:08;-2.6;79.7
67893;DHT22;54688;52.376;16.744;2023-02-15T00:50:11;-2.6;79.6
67893;DHT22;54688;52.376;16.744;2023-02-15T00:53:13;-2.7;79.6
67893;DHT22;54688;52.376;16.744;2023-02-15T00:56:15;-2.7;79.7
67893;DHT22;54688;52.376;16.744;2023-02-15T00:59:18;-2.7;79.7
67893;DHT22;54688;52.376;16.744;2023-02-15T01:02:20;-2.7;79.5
67893;DHT22;54688;52.376;16.744;2023-02-15T01:05:23;-2.8;79.2
67893;DHT22;54688;52.376;16.744;2023-02-15T01:08:25;-2.8;79.2
67893;DHT22;54688;52.376;16.744;2023-02-15T01:11:27;-2.8;79
67893;DHT22;54688;52.376;16.744;2023-02-15T01:14:30;-2.9;78.8
67893;DHT22;54688;52.376;16.744;2023-02-15T01:17:32;-3;78.6
67893;DHT22;54688;52.376;16.744;2023-02-15T01:20:36;-3;78.7
67893;DHT22;54688;52.376;16.744;2023-02-15T01:23:40;-3;78.6
67893;DHT22;54688;52.376;16.744;2023-02-15T01:26:43;-3.1;78.6
67893;DHT22;54688;52.376;16.744;2023-02-15T01:29:45;-3.1;78.8
67893;DHT22;54688;52.376;16.744;2023-02-15T01:32:47;-3.1;79.2
67893;DHT22;54688;52.376;16.744;2023-02-15T01:35:55;-3.2;79.5
67893;DHT22;54688;52.376;16.744;2023-02-15T01:38:57;-3.2;79.9
67893;DHT22;54688;52.376;16.744;2023-02-15T01:42:00;-3.2;79.8
67893;DHT22;54688;52.376;16.744;2023-02-15T01:45:03;-3.2;79.7
67893;DHT22;54688;52.376;16.744;2023-02-15T01:48:16;-3.2;79.7
67893;DHT22;54688;52.376;16.744;2023-02-15T01:51:22;-3.2;79.8
67893;DHT22;54688;52.376;16.744;2023-02-15T01:54:29;-3.3;79.9
67893;DHT22;54688;52.376;16.744;2023-02-15T01:57:33;-3.3;79.9
67893;DHT22;54688;52.376;16.744;2023-02-15T02:00:36;-3.3;79.9
67893;DHT22;54688;52.376;16.744;2023-02-15T02:03:41;-3.3;80
67893;DHT22;54688;52.376;16.744;2023-02-15T02:06:49;-3.3;80
67893;DHT22;54688;52.376;16.744;2023-02-15T02:09:53;-3.3;80.6
67893;DHT22;54688;52.376;16.744;2023-02-15T02:12:56;-3.3;80.8
67893;DHT22;54688;52.376;16.744;2023-02-15T02:16:01;-3.3;80.7
67893;DHT22;54688;52.376;16.744;2023-02-15T02:19:25;-3.4;80.6
67893;DHT22;54688;52.376;16.744;2023-02-15T02:23:21;-3.4;80.2
67893;DHT22;54688;52.376;16.744;2023-02-15T02:26:37;-3.5;79.9
67893;DHT22;54688;52.376;16.744;2023-02-15T02:30:05;-3.5;80.1
67893;DHT22;54688;52.376;16.744;2023-02-15T02:33:30;-3.6;80
67893;DHT22;54688;52.376;16.744;2023-02-15T02:36:41;-3.6;79.9
67893;DHT22;54688;52.376;16.744;2023-02-15T02:39:53;-3.7;79.7
67893;DHT22;54688;52.376;16.744;2023-02-15T02:43:02;-3.7;79.8
67893;DHT22;54688;52.376;16.744;2023-02-15T02:46:12;-3.7;80
67893;DHT22;54688;52.376;16.744;2023-02-15T02:49:36;-3.7;80
67893;DHT22;54688;52.376;16.744;2023-02-15T02:52:40;-3.8;79.9
67893;DHT22;54688;52.376;16.744;2023-02-15T02:55:43;-3.8;80.1
67893;DHT22;54688;52.376;16.744;2023-02-15T02:58:48;-3.7;80.4
67893;DHT22;54688;52.376;16.744;2023-02-15T03:01:54;-3.8;80.3
67893;DHT22;54688;52.376;16.744;2023-02-15T03:05:01;-3.8;80.3
67893;DHT22;54688;52.376;16.744;2023-02-15T03:08:07;-3.8;80.3
67893;DHT22;54688;52.376;16.744;2023-02-15T03:11:10;-3.9;80.3
67893;DHT22;54688;52.376;16.744;2023-02-15T03:14:14;-3.9;80
67893;DHT22;54688;52.376;16.744;2023-02-15T03:17:18;-3.9;79.8
67893;DHT22;54688;52.376;16.744;2023-02-15T03:23:23;-4;80.3
67893;DHT22;54688;52.376;16.744;2023-02-15T03:26:27;-4;80
67893;DHT22;54688;52.376;16.744;2023-02-15T03:29:31;-4;80.3
67893;DHT22;54688;52.376;16.744;2023-02-15T03:32:35;-4;80.5
67893;DHT22;54688;52.376;16.744;2023-02-15T03:35:41;-4;80.9
67893;DHT22;54688;52.376;16.744;2023-02-15T03:38:50;-4;80.8
67893;DHT22;54688;52.376;16.744;2023-02-15T03:41:56;-4;80.6
67893;DHT22;54688;52.376;16.744;2023-02-15T03:45:02;-4;80.7
67893;DHT22;54688;52.376;16.744;2023-02-15T03:51:10;-4;80.8
67893;DHT22;54688;52.376;16.744;2023-02-15T03:54:18;-4;80.9
67893;DHT22;54688;52.376;16.744;2023-02-15T03:57:24;-4.1;80.6
67893;DHT22;54688;52.376;16.744;2023-02-15T04:00:28;-4.1;80.5
67893;DHT22;54688;52.376;16.744;2023-02-15T04:03:35;-4.1;80.6
67893;DHT22;54688;52.376;16.744;2023-02-15T04:06:41;-4.1;80.8
67893;DHT22;54688;52.376;16.744;2023-02-15T04:09:43;-4.1;80.7
67893;DHT22;54688;52.376;16.744;2023-02-15T04:12:45;-4.1;80.8
67893;DHT22;54688;52.376;16.744;2023-02-15T04:15:47;-4.1;80.8
67893;DHT22;54688;52.376;16.744;2023-02-15T04:18:49;-4.1;80.5
67893;DHT22;54688;52.376;16.744;2023-02-15T04:21:51;-4.2;80.5
67893;DHT22;54688;52.376;16.744;2023-02-15T04:24:53;-4.2;80.7
67893;DHT22;54688;52.376;16.744;2023-02-15T04:27:55;-4.2;80.5
67893;DHT22;54688;52.376;16.744;2023-02-15T04:30:57;-4.2;80.6
67893;DHT22;54688;52.376;16.744;2023-02-15T04:33:59;-4.2;80.8
67893;DHT22;54688;52.376;16.744;2023-02-15T04:37:02;-4.2;81.7
67893;DHT22;54688;52.376;16.744;2023-02-15T04:40:05;-4.1;82.1
67893;DHT22;54688;52.376;16.744;2023-02-15T04:43:08;-4.1;82.2
67893;DHT22;54688;52.376;16.744;2023-02-15T04:46:10;-4;82.1
67893;DHT22;54688;52.376;16.744;2023-02-15T04:49:12;-4.1;81.1
67893;DHT22;54688;52.376;16.744;2023-02-15T04:52:15;-4.2;81.1
67893;DHT22;54688;52.376;16.744;2023-02-15T04:55:17;-4.2;80.8
67893;DHT22;54688;52.376;16.744;2023-02-15T04:58:19;-4.2;81.1
67893;DHT22;54688;52.376;16.744;2023-02-15T05:01:21;-4.3;81
67893;DHT22;54688;52.376;16.744;2023-02-15T05:04:23;-4.3;81.9
67893;DHT22;54688;52.376;16.744;2023-02-15T05:07:25;-4.2;81.9
67893;DHT22;54688;52.376;16.744;2023-02-15T05:13:26;-4.1;82
67893;DHT22;54688;52.376;16.744;2023-02-15T05:19:27;-4.3;80.7
67893;DHT22;54688;52.376;16.744;2023-02-15T05:22:30;-4.3;80.6
67893;DHT22;54688;52.376;16.744;2023-02-15T05:25:32;-4.3;81.5
67893;DHT22;54688;52.376;16.744;2023-02-15T05:28:34;-4.3;81.6
67893;DHT22;54688;52.376;16.744;2023-02-15T05:31:38;-4.3;81.3
67893;DHT22;54688;52.376;16.744;2023-02-15T05:34:40;-4.3;81.2
67893;DHT22;54688;52.376;16.744;2023-02-15T05:37:42;-4.4;80.6
67893;DHT22;54688;52.376;16.744;2023-02-15T05:40:45;-4.4;80.6
67893;DHT22;54688;52.376;16.744;2023-02-15T05:43:47;-4.4;81.4
67893;DHT22;54688;52.376;16.744;2023-02-15T05:46:49;-4.4;81.4
67893;DHT22;54688;52.376;16.744;2023-02-15T05:49:51;-4.5;81.2
67893;DHT22;54688;52.376;16.744;2023-02-15T05:52:54;-4.4;81.3
67893;DHT22;54688;52.376;16.744;2023-02-15T05:58:56;-4.4;80.8
67893;DHT22;54688;52.376;16.744;2023-02-15T06:01:59;-4.5;80.3
67893;DHT22;54688;52.376;16.744;2023-02-15T06:05:01;-4.6;80.2
67893;DHT22;54688;52.376;16.744;2023-02-15T06:08:05;-4.6;81.4
67893;DHT22;54688;52.376;16.744;2023-02-15T06:11:08;-4.5;81.6
67893;DHT22;54688;52.376;16.744;2023-02-15T06:14:10;-4.5;82.1
67893;DHT22;54688;52.376;16.744;2023-02-15T06:17:12;-4.4;81.8
67893;DHT22;54688;52.376;16.744;2023-02-15T06:20:14;-4.4;81
67893;DHT22;54688;52.376;16.744;2023-02-15T06:23:16;-4.5;80.7
67893;DHT22;54688;52.376;16.744;2023-02-15T06:26:19;-4.5;80.5
67893;DHT22;54688;52.376;16.744;2023-02-15T06:29:21;-4.6;80.3
67893;DHT22;54688;52.376;16.744;2023-02-15T06:38:22;-4.6;81
67893;DHT22;54688;52.376;16.744;2023-02-15T06:41:25;-4.6;80.8
67893;DHT22;54688;52.376;16.744;2023-02-15T06:44:27;-4.6;80.8
67893;DHT22;54688;52.376;16.744;2023-02-15T06:47:29;-4.6;80.7
67893;DHT22;54688;52.376;16.744;2023-02-15T06:50:31;-4.6;81
67893;DHT22;54688;52.376;16.744;2023-02-15T06:53:33;-4.5;81.2
67893;DHT22;54688;52.376;16.744;2023-02-15T06:56:35;-4.5;81
67893;DHT22;54688;52.376;16.744;2023-02-15T06:59:37;-4.5;80.8
67893;DHT22;54688;52.376;16.744;2023-02-15T07:02:40;-4.5;81.5
67893;DHT22;54688;52.376;16.744;2023-02-15T07:05:42;-4.4;82.2
67893;DHT22;54688;52.376;16.744;2023-02-15T07:08:45;-4.3;81.9
67893;DHT22;54688;52.376;16.744;2023-02-15T07:11:47;-4.2;81.7
67893;DHT22;54688;52.376;16.744;2023-02-15T07:14:49;-4.2;81.8
67893;DHT22;54688;52.376;16.744;2023-02-15T07:17:51;-4.1;81.9
67893;DHT22;54688;52.376;16.744;2023-02-15T07:20:53;-4.1;81.9
67893;DHT22;54688;52.376;16.744;2023-02-15T07:23:55;-4;82.3
67893;DHT22;54688;52.376;16.744;2023-02-15T07:26:58;-3.9;82.2
67893;DHT22;54688;52.376;16.744;2023-02-15T07:32:59;-3.8;82.5
67893;DHT22;54688;52.376;16.744;2023-02-15T07:36:02;-3.7;82.6
67893;DHT22;54688;52.376;16.744;2023-02-15T07:39:05;-3.6;83.4
67893;DHT22;54688;52.376;16.744;2023-02-15T07:42:08;-3.5;82.6
67893;DHT22;54688;52.376;16.744;2023-02-15T07:45:10;-3.5;83.1
67893;DHT22;54688;52.376;16.744;2023-02-15T07:48:13;-3.4;82.6
67893;DHT22;54688;52.376;16.744;2023-02-15T07:51:15;-3.3;83.8
67893;DHT22;54688;52.376;16.744;2023-02-15T07:54:17;-3.1;84.1
67893;DHT22;54688;52.376;16.744;2023-02-15T07:57:19;-3;84.5
67893;DHT22;54688;52.376;16.744;2023-02-15T08:00:21;-2.8;85.3
67893;DHT22;54688;52.376;16.744;2023-02-15T08:03:24;-2.6;84.8
67893;DHT22;54688;52.376;16.744;2023-02-15T08:06:27;-2.6;84.8
67893;DHT22;54688;52.376;16.744;2023-02-15T08:09:31;-2.4;85.5
67893;DHT22;54688;52.376;16.744;2023-02-15T08:12:33;-2.2;84.9
67893;DHT22;54688;52.376;16.744;2023-02-15T08:15:35;-2.1;84.3
67893;DHT22;54688;52.376;16.744;2023-02-15T08:18:37;-2.1;84.2
67893;DHT22;54688;52.376;16.744;2023-02-15T08:21:40;-2;84.1
67893;DHT22;54688;52.376;16.744;2023-02-15T08:24:43;-2;84.5
67893;DHT22;54688;52.376;16.744;2023-02-15T08:27:45;-1.9;84.8
67893;DHT22;54688;52.376;16.744;2023-02-15T08:30:47;-1.7;85.6
67893;DHT22;54688;52.376;16.744;2023-02-15T08:33:51;-1.6;85.6
67893;DHT22;54688;52.376;16.744;2023-02-15T08:36:54;-1.4;85.7
67893;DHT22;54688;52.376;16.744;2023-02-15T08:39:56;-1.3;85.7
67893;DHT22;54688;52.376;16.744;2023-02-15T08:42:58;-1.2;85.8
67893;DHT22;54688;52.376;16.744;2023-02-15T08:46:01;-1.1;85.3
67893;DHT22;54688;52.376;16.744;2023-02-15T08:49:03;-1;86
67893;DHT22;54688;52.376;16.744;2023-02-15T08:52:06;-0.8;86
67893;DHT22;54688;52.376;16.744;2023-02-15T08:55:08;-0.7;86.6
67893;DHT22;54688;52.376;16.744;2023-02-15T08:58:10;-0.6;86.5
67893;DHT22;54688;52.376;16.744;2023-02-15T09:01:13;-0.4;86.4
67893;DHT22;54688;52.376;16.744;2023-02-15T09:04:16;-0.3;86.6
67893;DHT22;54688;52.376;16.744;2023-02-15T09:07:18;-0.2;86.6
67893;DHT22;54688;52.376;16.744;2023-02-15T09:10:21;0;86.6
67893;DHT22;54688;52.376;16.744;2023-02-15T09:13:23;0.1;86.3
67893;DHT22;54688;52.376;16.744;2023-02-15T09:16:26;0.1;86
67893;DHT22;54688;52.376;16.744;2023-02-15T09:19:29;0.2;86.1
67893;DHT22;54688;52.376;16.744;2023-02-15T09:22:32;0.3;86.2
67893;DHT22;54688;52.376;16.744;2023-02-15T09:25:34;0.4;86
67893;DHT22;54688;52.376;16.744;2023-02-15T09:28:36;0.5;85.8
67893;DHT22;54688;52.376;16.744;2023-02-15T09:31:40;0.6;85.8
67893;DHT22;54688;52.376;16.744;2023-02-15T09:34:43;0.7;85.4
67893;DHT22;54688;52.376;16.744;2023-02-15T09:37:45;0.7;85.4
67893;DHT22;54688;52.376;16.744;2023-02-15T09:40:49;0.8;85.3
67893;DHT22;54688;52.376;16.744;2023-02-15T09:44:06;0.9;85.4
67893;DHT22;54688;52.376;16.744;2023-02-15T09:47:28;0.9;85.2
67893;DHT22;54688;52.376;16.744;2023-02-15T09:50:49;1.1;84.7
67893;DHT22;54688;52.376;16.744;2023-02-15T09:54:06;1.2;84
67893;DHT22;54688;52.376;16.744;2023-02-15T09:57:20;1.2;84.5
67893;DHT22;54688;52.376;16.744;2023-02-15T10:00:30;1.3;83.3
67893;DHT22;54688;52.376;16.744;2023-02-15T10:03:43;1.4;84
67893;DHT22;54688;52.376;16.744;2023-02-15T10:06:59;1.5;83.8
67893;DHT22;54688;52.376;16.744;2023-02-15T10:10:14;1.6;83.6
67893;DHT22;54688;52.376;16.744;2023-02-15T10:13:27;1.6;83.3
67893;DHT22;54688;52.376;16.744;2023-02-15T10:16:38;1.7;83.1
67893;DHT22;54688;52.376;16.744;2023-02-15T10:19:54;1.8;83
67893;DHT22;54688;52.376;16.744;2023-02-15T10:23:08;1.8;82.7
67893;DHT22;54688;52.376;16.744;2023-02-15T10:26:20;1.9;82.3
67893;DHT22;54688;52.376;16.744;2023-02-15T10:29:27;2;81.6
67893;DHT22;54688;52.376;16.744;2023-02-15T10:32:37;2.1;82.1
67893;DHT22;54688;52.376;16.744;2023-02-15T10:35:46;2.2;81.6
67893;DHT22;54688;52.376;16.744;2023-02-15T10:38:53;2.3;81.1
67893;DHT22;54688;52.376;16.744;2023-02-15T10:42:06;2.4;81
67893;DHT22;54688;52.376;16.744;2023-02-15T10:45:16;2.5;80.2
67893;DHT22;54688;52.376;16.744;2023-02-15T10:48:30;2.5;79
67893;DHT22;54688;52.376;16.744;2023-02-15T10:51:52;2.6;79.7
67893;DHT22;54688;52.376;16.744;2023-02-15T10:55:10;2.6;79.5
67893;DHT22;54688;52.376;16.744;2023-02-15T10:58:17;2.7;79.4
67893;DHT22;54688;52.376;16.744;2023-02-15T11:01:27;2.7;78.3
67893;DHT22;54688;52.376;16.744;2023-02-15T11:04:37;2.8;79.1
67893;DHT22;54688;52.376;16.744;2023-02-15T11:07:46;2.9;78.7
67893;DHT22;54688;52.376;16.744;2023-02-15T11:10:51;2.9;78.4
67893;DHT22;54688;52.376;16.744;2023-02-15T11:16:57;3.1;78
67893;DHT22;54688;52.376;16.744;2023-02-15T11:20:08;3.2;77.5
67893;DHT22;54688;52.376;16.744;2023-02-15T11:23:18;3.2;77
67893;DHT22;54688;52.376;16.744;2023-02-15T11:26:24;3.3;76.8
67893;DHT22;54688;52.376;16.744;2023-02-15T11:29:31;3.4;76.5
67893;DHT22;54688;52.376;16.744;2023-02-15T11:32:37;3.4;76.2
67893;DHT22;54688;52.376;16.744;2023-02-15T11:35:42;3.5;76.3
67893;DHT22;54688;52.376;16.744;2023-02-15T11:38:51;3.5;76
67893;DHT22;54688;52.376;16.744;2023-02-15T11:41:59;3.6;75.3
67893;DHT22;54688;52.376;16.744;2023-02-15T11:45:07;3.7;75.2
67893;DHT22;54688;52.376;16.744;2023-02-15T11:48:22;3.8;75
67893;DHT22;54688;52.376;16.744;2023-02-15T11:51:25;3.8;74.9
67893;DHT22;54688;52.376;16.744;2023-02-15T11:54:30;3.9;74.1
67893;DHT22;54688;52.376;16.744;2023-02-15T11:57:36;4;74
67893;DHT22;54688;52.376;16.744;2023-02-15T12:00:43;4;74.2
67893;DHT22;54688;52.376;16.744;2023-02-15T12:03:48;4.2;74
67893;DHT22;54688;52.376;16.744;2023-02-15T12:06:53;4.2;74
67893;DHT22;54688;52.376;16.744;2023-02-15T12:10:00;4.3;73.9
67893;DHT22;54688;52.376;16.744;2023-02-15T12:13:08;4.3;74.1
67893;DHT22;54688;52.376;16.744;2023-02-15T12:16:12;4.4;73.6
67893;DHT22;54688;52.376;16.744;2023-02-15T12:19:26;4.5;73.4
67893;DHT22;54688;52.376;16.744;2023-02-15T12:22:31;4.6;72.9
67893;DHT22;54688;52.376;16.744;2023-02-15T12:25:36;4.7;72.6
67893;DHT22;54688;52.376;16.744;2023-02-15T12:28:41;4.8;71.9
67893;DHT22;54688;52.376;16.744;2023-02-15T12:31:46;4.9;71.8
67893;DHT22;54688;52.376;16.744;2023-02-15T12:34:51;5;71.5
67893;DHT22;54688;52.376;16.744;2023-02-15T12:37:58;5.1;71.7
67893;DHT22;54688;52.376;16.744;2023-02-15T12:41:04;5.1;71.1
67893;DHT22;54688;52.376;16.744;2023-02-15T12:44:22;5.2;70.3
67893;DHT22;54688;52.376;16.744;2023-02-15T12:47:25;5.3;70.3
67893;DHT22;54688;52.376;16.744;2023-02-15T12:50:28;5.4;69.9
67893;DHT22;54688;52.376;16.744;2023-02-15T12:53:31;5.4;69.4
67893;DHT22;54688;52.376;16.744;2023-02-15T12:56:34;5.5;69.1
67893;DHT22;54688;52.376;16.744;2023-02-15T12:59:36;5.6;69.3
67893;DHT22;54688;52.376;16.744;2023-02-15T13:02:41;5.6;69.1
67893;DHT22;54688;52.376;16.744;2023-02-15T13:05:45;5.7;69.3
67893;DHT22;54688;52.376;16.744;2023-02-15T13:08:50;5.8;68.6
67893;DHT22;54688;52.376;16.744;2023-02-15T13:11:54;5.8;68.1
67893;DHT22;54688;52.376;16.744;2023-02-15T13:14:58;5.9;67.8
67893;DHT22;54688;52.376;16.744;2023-02-15T13:18:00;6;67.9
67893;DHT22;54688;52.376;16.744;2023-02-15T13:21:04;6.1;67.3
67893;DHT22;54688;52.376;16.744;2023-02-15T13:24:15;6.1;66.6
67893;DHT22;54688;52.376;16.744;2023-02-15T13:27:21;6.1;67.4
67893;DHT22;54688;52.376;16.744;2023-02-15T13:30:27;6.2;66.5
67893;DHT22;54688;52.376;16.744;2023-02-15T13:33:33;6.3;66.7
67893;DHT22;54688;52.376;16.744;2023-02-15T13:36:40;6.4;66.8
67893;DHT22;54688;52.376;16.744;2023-02-15T13:39:47;6.5;66
67893;DHT22;54688;52.376;16.744;2023-02-15T13:42:56;6.5;65.4
67893;DHT22;54688;52.376;16.744;2023-02-15T13:46:08;6.6;65.5
67893;DHT22;54688;52.376;16.744;2023-02-15T13:49:18;6.6;65.4
67893;DHT22;54688;52.376;16.744;2023-02-15T13:52:32;6.7;65.5
67893;DHT22;54688;52.376;16.744;2023-02-15T13:55:42;6.8;66.1
67893;DHT22;54688;52.376;16.744;2023-02-15T13:58:56;6.8;65.1
67893;DHT22;54688;52.376;16.744;2023-02-15T14:02:23;6.9;64.9
67893;DHT22;54688;52.376;16.744;2023-02-15T14:08:39;7.2;64.6
67893;DHT22;54688;52.376;16.744;2023-02-15T14:11:52;7.2;63.9
67893;DHT22;54688;52.376;16.744;2023-02-15T14:15:04;7.4;63.6
67893;DHT22;54688;52.376;16.744;2023-02-15T14:18:15;7.5;63.4
67893;DHT22;54688;52.376;16.744;2023-02-15T14:21:26;7.6;63.2
67893;DHT22;54688;52.376;16.744;2023-02-15T14:24:33;7.7;63
67893;DHT22;54688;52.376;16.744;2023-02-15T14:27:43;7.7;62.8
67893;DHT22;54688;52.376;16.744;2023-02-15T14:30:53;7.7;62.6
67893;DHT22;54688;52.376;16.744;2023-02-15T14:36:54;7.8;62.3
67893;DHT22;54688;52.376;16.744;2023-02-15T14:39:58;7.9;62.4
67893;DHT22;54688;52.376;16.744;2023-02-15T14:43:07;8;62.2
67893;DHT22;54688;52.376;16.744;2023-02-15T14:46:14;8;61.6
67893;DHT22;54688;52.376;16.744;2023-02-15T14:49:24;8.1;62.2
67893;DHT22;54688;52.376;16.744;2023-02-15T14:52:29;8.1;61.8
67893;DHT22;54688;52.376;16.744;2023-02-15T14:55:34;8.1;61.9
67893;DHT22;54688;52.376;16.744;2023-02-15T14:58:37;8.1;61.7
67893;DHT22;54688;52.376;16.744;2023-02-15T15:01:42;8;61.8
67893;DHT22;54688;52.376;16.744;2023-02-15T15:04:56;8.1;61.9
67893;DHT22;54688;52.376;16.744;2023-02-15T15:08:03;8;61.9
67893;DHT22;54688;52.376;16.744;2023-02-15T15:11:39;8;62.2
67893;DHT22;54688;52.376;16.744;2023-02-15T15:14:44;8;62.7
67893;DHT22;54688;52.376;16.744;2023-02-15T15:17:56;8;62.3
67893;DHT22;54688;52.376;16.744;2023-02-15T15:21:00;7.9;61.8
67893;DHT22;54688;52.376;16.744;2023-02-15T15:24:05;7.8;62.3
67893;DHT22;54688;52.376;16.744;2023-02-15T15:28:30;7.7;62.9
67893;DHT22;54688;52.376;16.744;2023-02-15T15:31:55;7.7;63
67893;DHT22;54688;52.376;16.744;2023-02-15T15:35:04;7.6;62.3
67893;DHT22;54688;52.376;16.744;2023-02-15T15:38:23;7.5;63.6
67893;DHT22;54688;52.376;16.744;2023-02-15T15:41:39;7.4;63.5
67893;DHT22;54688;52.376;16.744;2023-02-15T15:44:52;7.2;63.5
67893;DHT22;54688;52.376;16.744;2023-02-15T15:49:09;7.1;63.7
67893;DHT22;54688;52.376;16.744;2023-02-15T15:52:14;6.9;64.5
67893;DHT22;54688;52.376;16.744;2023-02-15T15:55:18;6.7;64.5
67893;DHT22;54688;52.376;16.744;2023-02-15T15:58:23;6.6;65.4
67893;DHT22;54688;52.376;16.744;2023-02-15T16:01:26;6.4;65.5
67893;DHT22;54688;52.376;16.744;2023-02-15T16:04:31;6.2;65.9
67893;DHT22;54688;52.376;16.744;2023-02-15T16:07:34;6.1;66.4
67893;DHT22;54688;52.376;16.744;2023-02-15T16:10:36;5.9;67
67893;DHT22;54688;52.376;16.744;2023-02-15T16:13:39;5.7;67.3
67893;DHT22;54688;52.376;16.744;2023-02-15T16:16:45;5.6;67.8
67893;DHT22;54688;52.376;16.744;2023-02-15T16:19:49;5.4;68.6
67893;DHT22;54688;52.376;16.744;2023-02-15T16:22:53;5.3;69.2
67893;DHT22;54688;52.376;16.744;2023-02-15T16:26:05;5.1;68.8
67893;DHT22;54688;52.376;16.744;2023-02-15T16:29:16;5;69
67893;DHT22;54688;52.376;16.744;2023-02-15T16:32:28;4.9;69.2
67893;DHT22;54688;52.376;16.744;2023-02-15T16:35:30;4.7;70.2
67893;DHT22;54688;52.376;16.744;2023-02-15T16:38:43;4.6;70.6
67893;DHT22;54688;52.376;16.744;2023-02-15T16:42:07;4.5;70.1
67893;DHT22;54688;52.376;16.744;2023-02-15T16:45:12;4.4;70.3
67893;DHT22;54688;52.376;16.744;2023-02-15T16:48:19;4.3;70.7
67893;DHT22;54688;52.376;16.744;2023-02-15T16:51:25;4.2;71
67893;DHT22;54688;52.376;16.744;2023-02-15T16:54:29;4.1;71.3
67893;DHT22;54688;52.376;16.744;2023-02-15T16:57:33;3.9;71.5
67893;DHT22;54688;52.376;16.744;2023-02-15T17:00:38;3.8;71.6
67893;DHT22;54688;52.376;16.744;2023-02-15T17:03:41;3.7;71.9
67893;DHT22;54688;52.376;16.744;2023-02-15T17:06:48;3.7;72.5
67893;DHT22;54688;52.376;16.744;2023-02-15T17:10:00;3.6;72.5
67893;DHT22;54688;52.376;16.744;2023-02-15T17:13:02;3.5;72.9
67893;DHT22;54688;52.376;16.744;2023-02-15T17:16:18;3.4;73.3
67893;DHT22;54688;52.376;16.744;2023-02-15T17:19:28;3.3;73.6
67893;DHT22;54688;52.376;16.744;2023-02-15T17:22:32;3.3;73.7
67893;DHT22;54688;52.376;16.744;2023-02-15T17:25:36;3.2;73.7
67893;DHT22;54688;52.376;16.744;2023-02-15T17:28:43;3.2;74.7
67893;DHT22;54688;52.376;16.744;2023-02-15T17:31:47;3.1;74.2
67893;DHT22;54688;52.376;16.744;2023-02-15T17:34:57;3.1;74.3
67893;DHT22;54688;52.376;16.744;2023-02-15T17:38:03;3;74.7
67893;DHT22;54688;52.376;16.744;2023-02-15T17:41:07;3;75.1
67893;DHT22;54688;52.376;16.744;2023-02-15T17:44:09;3;75.1
67893;DHT22;54688;52.376;16.744;2023-02-15T17:47:11;2.9;75.4
67893;DHT22;54688;52.376;16.744;2023-02-15T17:50:18;2.9;75.7
67893;DHT22;54688;52.376;16.744;2023-02-15T17:53:22;2.8;75.5
67893;DHT22;54688;52.376;16.744;2023-02-15T17:56:25;2.8;75.9
67893;DHT22;54688;52.376;16.744;2023-02-15T17:59:27;2.7;76.4
67893;DHT22;54688;52.376;16.744;2023-02-15T18:02:31;2.7;76.2
67893;DHT22;54688;52.376;16.744;2023-02-15T18:05:36;2.7;76.3
67893;DHT22;54688;52.376;16.744;2023-02-15T18:08:39;2.6;76.4
67893;DHT22;54688;52.376;16.744;2023-02-15T18:11:40;2.6;76.5
67893;DHT22;54688;52.376;16.744;2023-02-15T18:14:43;2.5;76.7
67893;DHT22;54688;52.376;16.744;2023-02-15T18:17:46;2.5;76.8
67893;DHT22;54688;52.376;16.744;2023-02-15T18:20:48;2.4;76.7
67893;DHT22;54688;52.376;16.744;2023-02-15T18:23:50;2.3;76.9
67893;DHT22;54688;52.376;16.744;2023-02-15T18:26:52;2.2;76.9
67893;DHT22;54688;52.376;16.744;2023-02-15T18:29:55;2.2;77
67893;DHT22;54688;52.376;16.744;2023-02-15T18:32:57;2.1;76.8
67893;DHT22;54688;52.376;16.744;2023-02-15T18:36:00;2;77
67893;DHT22;54688;52.376;16.744;2023-02-15T18:39:04;1.9;77.1
67893;DHT22;54688;52.376;16.744;2023-02-15T18:42:17;1.9;77.5
67893;DHT22;54688;52.376;16.744;2023-02-15T18:45:23;1.8;77.7
67893;DHT22;54688;52.376;16.744;2023-02-15T18:48:26;1.7;77.8
67893;DHT22;54688;52.376;16.744;2023-02-15T18:54:27;1.6;77.9
67893;DHT22;54688;52.376;16.744;2023-02-15T18:57:29;1.5;77.8
67893;DHT22;54688;52.376;16.744;2023-02-15T19:00:32;1.4;78
67893;DHT22;54688;52.376;16.744;2023-02-15T19:03:36;1.4;78.2
67893;DHT22;54688;52.376;16.744;2023-02-15T19:06:40;1.3;78.2
67893;DHT22;54688;52.376;16.744;2023-02-15T19:09:46;1.2;78.2
67893;DHT22;54688;52.376;16.744;2023-02-15T19:12:53;1.2;78.4
67893;DHT22;54688;52.376;16.744;2023-02-15T19:15:56;1.1;78.6
67893;DHT22;54688;52.376;16.744;2023-02-15T19:18:58;1;78.7
67893;DHT22;54688;52.376;16.744;2023-02-15T19:22:01;1;78.8
67893;DHT22;54688;52.376;16.744;2023-02-15T19:25:04;1;78.9
67893;DHT22;54688;52.376;16.744;2023-02-15T19:28:10;0.9;78.1
67893;DHT22;54688;52.376;16.744;2023-02-15T19:31:17;0.8;78.3
67893;DHT22;54688;52.376;16.744;2023-02-15T19:34:19;0.7;78.8
67893;DHT22;54688;52.376;16.744;2023-02-15T19:37:22;0.7;79
67893;DHT22;54688;52.376;16.744;2023-02-15T19:40:27;0.6;79.1
67893;DHT22;54688;52.376;16.744;2023-02-15T19:43:31;0.6;79.1
67893;DHT22;54688;52.376;16.744;2023-02-15T19:46:34;0.5;78.9
67893;DHT22;54688;52.376;16.744;2023-02-15T19:49:36;0.4;78.9
67893;DHT22;54688;52.376;16.744;2023-02-15T19:52:38;0.4;79
67893;DHT22;54688;52.376;16.744;2023-02-15T19:55:42;0.3;78.9
67893;DHT22;54688;52.376;16.744;2023-02-15T19:58:43;0.2;79.1
67893;DHT22;54688;52.376;16.744;2023-02-15T20:01:46;0.2;79.2
67893;DHT22;54688;52.376;16.744;2023-02-15T20:04:48;0.1;79.3
67893;DHT22;54688;52.376;16.744;2023-02-15T20:07:51;0;79.2
67893;DHT22;54688;52.376;16.744;2023-02-15T20:10:55;0;79.2
67893;DHT22;54688;52.376;16.744;2023-02-15T20:13:58;-0.1;79.3
67893;DHT22;54688;52.376;16.744;2023-02-15T20:17:00;-0.2;79.2
67893;DHT22;54688;52.376;16.744;2023-02-15T20:20:02;-0.2;79.4
67893;DHT22;54688;52.376;16.744;2023-02-15T20:23:04;-0.3;79.6
67893;DHT22;54688;52.376;16.744;2023-02-15T20:26:11;-0.4;79.6
67893;DHT22;54688;52.376;16.744;2023-02-15T20:29:15;-0.4;79.6
67893;DHT22;54688;52.376;16.744;2023-02-15T20:32:18;-0.4;79.6
67893;DHT22;54688;52.376;16.744;2023-02-15T20:35:21;-0.5;80
67893;DHT22;54688;52.376;16.744;2023-02-15T20:38:26;-0.5;80
67893;DHT22;54688;52.376;16.744;2023-02-15T20:41:30;-0.6;79.9
67893;DHT22;54688;52.376;16.744;2023-02-15T20:44:32;-0.6;80.1
67893;DHT22;54688;52.376;16.744;2023-02-15T20:47:34;-0.6;80.3
67893;DHT22;54688;52.376;16.744;2023-02-15T20:50:37;-0.6;80.4
67893;DHT22;54688;52.376;16.744;2023-02-15T20:53:39;-0.7;80.4